createdAt,value
2022-07-29T00:02:15.842Z,7.93
2022-07-29T00:04:42.621Z,6.22
2022-07-29T00:07:09.254Z,2.75
2022-07-29T00:09:43.011Z,4.43
2022-07-29T00:12:18.151Z,6.88
2022-07-29T00:14:52.632Z,4.88
2022-07-29T00:17:19.233Z,4.22
2022-07-29T00:19:45.787Z,5.07
2022-07-29T00:22:12.274Z,3.13
2022-07-29T00:24:38.787Z,4.30
2022-07-29T00:27:05.282Z,3.92
2022-07-29T00:29:33.977Z,3.63
2022-07-29T00:34:46.363Z,4.63
2022-07-29T00:37:12.861Z,5.55
2022-07-29T00:39:39.361Z,3.95
2022-07-29T00:42:06.303Z,4.30
2022-07-29T00:44:37.960Z,3.75
2022-07-29T00:47:04.820Z,4.55
2022-07-29T00:49:31.531Z,3.38
2022-07-29T00:51:58.650Z,5.60
2022-07-29T00:54:25.290Z,4.45
2022-07-29T00:56:52.023Z,5.38
2022-07-29T00:59:18.665Z,5.00
2022-07-29T01:01:45.208Z,6.80
2022-07-29T01:04:11.909Z,8.48
2022-07-29T01:06:38.658Z,4.93
2022-07-29T01:09:05.571Z,2.90
2022-07-29T01:11:32.358Z,2.22
2022-07-29T01:13:59.141Z,8.55
2022-07-29T01:16:33.317Z,3.28
2022-07-29T01:19:35.630Z,4.60
2022-07-29T01:22:23.230Z,9.73
2022-07-29T01:25:18.444Z,4.40
2022-07-29T01:28:05.063Z,10.00
2022-07-29T01:30:35.176Z,5.28
2022-07-29T01:33:06.987Z,3.97
2022-07-29T01:35:40.321Z,1.88
2022-07-29T01:38:14.592Z,10.07
2022-07-29T01:40:52.204Z,2.70
2022-07-29T01:43:24.672Z,2.83
2022-07-29T01:46:01.574Z,5.15
2022-07-29T01:48:42.502Z,6.70
2022-07-29T01:51:12.348Z,6.78
2022-07-29T01:53:47.176Z,7.75
2022-07-29T01:56:16.284Z,4.30
2022-07-29T01:58:44.815Z,3.78
2022-07-29T02:01:13.982Z,5.73
2022-07-29T02:03:46.317Z,2.92
2022-07-29T02:06:17.048Z,11.65
2022-07-29T02:08:46.268Z,6.15
2022-07-29T02:11:12.798Z,3.35
2022-07-29T02:13:41.076Z,6.35
2022-07-29T02:16:10.499Z,6.32
2022-07-29T02:21:15.547Z,8.80
2022-07-29T02:23:50.677Z,6.43
2022-07-29T02:26:20.025Z,5.55
2022-07-29T02:28:48.292Z,4.80
2022-07-29T02:31:16.719Z,7.50
2022-07-29T02:33:45.072Z,6.00
2022-07-29T02:36:12.344Z,4.97
2022-07-29T02:38:51.220Z,6.20
2022-07-29T02:41:21.666Z,1.83
2022-07-29T02:43:51.209Z,8.15
2022-07-29T02:49:36.182Z,5.72
2022-07-29T02:52:05.759Z,5.68
2022-07-29T02:54:42.030Z,2.08
2022-07-29T02:57:54.971Z,5.07
2022-07-29T03:00:26.354Z,4.68
2022-07-29T03:02:56.202Z,6.30
2022-07-29T03:05:23.794Z,3.85
2022-07-29T03:07:56.180Z,3.90
2022-07-29T03:10:24.008Z,2.45
2022-07-29T03:12:50.918Z,2.55
2022-07-29T03:15:18.111Z,5.60
2022-07-29T03:17:44.995Z,6.07
2022-07-29T03:20:12.761Z,4.45
2022-07-29T03:22:44.423Z,5.40
2022-07-29T03:25:11.963Z,4.55
2022-07-29T03:27:38.487Z,2.28
2022-07-29T03:30:06.386Z,7.70
2022-07-29T03:32:36.228Z,6.20
2022-07-29T03:35:04.114Z,4.80
2022-07-29T03:37:31.515Z,6.65
2022-07-29T03:39:59.170Z,9.52
2022-07-29T03:42:32.395Z,4.13
2022-07-29T03:45:06.304Z,7.70
2022-07-29T03:47:50.022Z,4.28
2022-07-29T03:50:20.259Z,8.65
2022-07-29T03:52:47.595Z,4.00
2022-07-29T03:55:15.261Z,4.85
2022-07-29T03:57:42.527Z,5.85
2022-07-29T04:00:10.068Z,4.43
2022-07-29T04:02:38.822Z,6.03
2022-07-29T04:05:05.821Z,3.63
2022-07-29T04:07:32.511Z,4.90
2022-07-29T04:09:59.044Z,5.82
2022-07-29T04:12:25.796Z,5.43
2022-07-29T04:14:52.336Z,6.25
2022-07-29T04:17:18.815Z,4.00
2022-07-29T04:19:45.381Z,4.00
2022-07-29T04:22:11.929Z,4.63
2022-07-29T04:24:38.432Z,4.15
2022-07-29T04:27:04.986Z,9.35
2022-07-29T04:29:31.486Z,3.35
2022-07-29T04:31:57.995Z,7.20
2022-07-29T04:34:27.938Z,6.68
2022-07-29T04:36:54.988Z,4.53
2022-07-29T04:39:23.161Z,5.13
2022-07-29T04:41:51.119Z,2.25
2022-07-29T04:44:19.646Z,3.72
2022-07-29T04:46:46.779Z,4.93
2022-07-29T04:49:14.112Z,2.13
2022-07-29T04:51:40.857Z,5.22
2022-07-29T04:54:07.413Z,3.92
2022-07-29T04:56:33.907Z,2.10
2022-07-29T04:59:00.370Z,4.53
2022-07-29T05:01:26.920Z,6.07
2022-07-29T05:03:58.358Z,5.85
2022-07-29T05:06:26.801Z,5.40
2022-07-29T05:08:53.526Z,2.95
2022-07-29T05:11:22.483Z,6.10
2022-07-29T05:13:50.572Z,2.67
2022-07-29T05:16:17.060Z,5.55
2022-07-29T05:18:43.604Z,6.47
2022-07-29T05:21:10.133Z,5.53
2022-07-29T05:23:36.651Z,5.75
2022-07-29T05:26:03.161Z,5.75
2022-07-29T05:28:29.903Z,5.75
2022-07-29T05:30:57.235Z,2.50
2022-07-29T05:33:34.885Z,2.85
2022-07-29T05:38:30.245Z,6.65
2022-07-29T05:40:59.098Z,5.82
2022-07-29T05:43:27.126Z,3.35
2022-07-29T05:45:53.577Z,9.48
2022-07-29T05:48:20.270Z,5.63
2022-07-29T05:50:46.722Z,7.38
2022-07-29T05:53:19.629Z,4.47
2022-07-29T05:55:50.520Z,4.80
2022-07-29T05:58:17.761Z,11.93
2022-07-29T06:00:44.719Z,16.17
2022-07-29T06:03:11.538Z,6.30
2022-07-29T06:05:38.338Z,4.88
2022-07-29T06:08:08.518Z,5.38
2022-07-29T06:10:38.078Z,4.25
2022-07-29T06:15:31.164Z,4.50
2022-07-29T06:17:59.973Z,7.50
2022-07-29T06:20:30.561Z,6.35
2022-07-29T06:22:57.814Z,8.10
2022-07-29T06:25:24.327Z,3.28
2022-07-29T06:27:50.812Z,5.97
2022-07-29T06:30:17.284Z,3.22
2022-07-29T06:32:43.810Z,7.43
2022-07-29T06:35:37.738Z,4.63
2022-07-29T06:37:59.489Z,6.47
2022-07-29T06:43:11.781Z,3.70
2022-07-29T06:45:42.158Z,4.47
2022-07-29T06:48:09.672Z,5.78
2022-07-29T06:50:36.595Z,5.28
2022-07-29T06:53:03.494Z,2.47
2022-07-29T06:55:38.015Z,7.60
2022-07-29T06:58:04.513Z,7.70
2022-07-29T07:00:31.320Z,5.10
2022-07-29T07:02:57.900Z,5.95
2022-07-29T07:05:24.342Z,4.63
2022-07-29T07:07:50.808Z,6.13
2022-07-29T07:10:17.364Z,6.05
2022-07-29T07:12:44.043Z,3.90
2022-07-29T07:15:10.816Z,4.65
2022-07-29T07:17:38.591Z,3.25
2022-07-29T07:20:06.760Z,7.85
2022-07-29T07:22:38.375Z,4.75
2022-07-29T07:25:05.703Z,4.25
2022-07-29T07:27:32.433Z,4.72
2022-07-29T07:29:58.950Z,6.45
2022-07-29T07:32:25.498Z,6.75
2022-07-29T07:34:52.185Z,5.32
2022-07-29T07:37:21.434Z,4.80
2022-07-29T07:39:47.952Z,2.92
2022-07-29T07:42:14.480Z,3.90
2022-07-29T07:45:03.778Z,5.63
2022-07-29T07:47:27.905Z,4.80
2022-07-29T07:49:54.565Z,5.45
2022-07-29T07:52:22.170Z,9.15
2022-07-29T07:54:49.798Z,4.47
2022-07-29T07:57:16.934Z,3.47
2022-07-29T07:59:43.604Z,5.13
2022-07-29T08:02:10.547Z,5.57
2022-07-29T08:04:37.790Z,5.65
2022-07-29T08:07:04.311Z,7.68
2022-07-29T08:09:30.976Z,4.65
2022-07-29T08:11:59.796Z,4.75
2022-07-29T08:14:26.318Z,5.72
2022-07-29T08:16:52.908Z,2.67
2022-07-29T08:19:19.483Z,4.25
2022-07-29T08:21:46.184Z,4.72
2022-07-29T08:24:31.199Z,9.60
2022-07-29T08:26:57.654Z,5.20
2022-07-29T08:29:24.108Z,3.53
2022-07-29T08:31:50.981Z,6.28
2022-07-29T08:34:17.886Z,6.07
2022-07-29T08:36:44.435Z,6.30
2022-07-29T08:39:16.780Z,7.28
2022-07-29T08:41:56.734Z,3.28
2022-07-29T08:44:30.505Z,8.68
2022-07-29T08:46:57.702Z,3.65
2022-07-29T08:49:24.317Z,4.72
2022-07-29T08:51:51.650Z,5.03
2022-07-29T08:54:19.457Z,4.65
2022-07-29T08:56:50.883Z,5.13
2022-07-29T08:59:21.805Z,7.63
2022-07-29T09:01:53.140Z,3.65
2022-07-29T09:04:21.635Z,3.83
2022-07-29T09:06:54.082Z,6.40
2022-07-29T09:09:20.963Z,6.25
2022-07-29T09:11:47.845Z,4.75
2022-07-29T09:14:15.429Z,4.15
2022-07-29T09:16:54.552Z,10.43
2022-07-29T09:22:03.543Z,6.07
2022-07-29T09:24:47.726Z,2.90
2022-07-29T09:27:24.498Z,3.42
2022-07-29T09:30:11.735Z,7.93
2022-07-29T09:33:02.440Z,7.53
2022-07-29T09:35:29.864Z,3.38
2022-07-29T09:37:56.462Z,3.92
2022-07-29T09:40:26.070Z,8.27
2022-07-29T09:42:54.191Z,7.10
2022-07-29T09:45:32.593Z,5.93
2022-07-29T09:48:04.236Z,6.73
2022-07-29T09:50:39.290Z,7.20
2022-07-29T09:53:05.946Z,4.88
2022-07-29T09:55:32.637Z,7.20
2022-07-29T09:58:23.502Z,4.47
2022-07-29T10:03:18.521Z,3.67
2022-07-29T10:05:46.906Z,5.80
2022-07-29T10:08:13.789Z,4.10
2022-07-29T10:10:42.780Z,4.72
2022-07-29T10:13:15.979Z,7.50
2022-07-29T10:15:45.289Z,4.78
2022-07-29T10:18:18.039Z,4.10
2022-07-29T10:20:44.561Z,4.15
2022-07-29T10:23:11.147Z,5.32
2022-07-29T10:25:37.887Z,2.95
2022-07-29T10:28:06.676Z,3.45
2022-07-29T10:30:33.686Z,3.90
2022-07-29T10:33:16.861Z,5.63
2022-07-29T10:36:03.921Z,6.15
2022-07-29T10:38:49.298Z,5.75
2022-07-29T10:41:28.995Z,10.63
2022-07-29T10:44:06.189Z,3.22
2022-07-29T10:46:38.601Z,4.15
2022-07-29T10:49:11.920Z,6.97
2022-07-29T10:51:51.423Z,5.55
2022-07-29T10:54:18.937Z,4.95
2022-07-29T10:56:45.534Z,4.70
2022-07-29T10:59:20.115Z,6.95
2022-07-29T11:01:53.374Z,4.30
2022-07-29T11:05:04.266Z,10.07
2022-07-29T11:10:17.852Z,4.65
2022-07-29T11:12:48.284Z,5.78
2022-07-29T11:15:20.106Z,3.83
2022-07-29T11:17:59.256Z,6.07
2022-07-29T11:20:50.022Z,9.18
2022-07-29T11:23:33.925Z,8.90
2022-07-29T11:26:10.500Z,6.05
2022-07-29T11:29:25.579Z,3.50
2022-07-29T11:31:57.413Z,6.05
2022-07-29T11:34:33.136Z,5.18
2022-07-29T11:37:07.581Z,6.65
2022-07-29T11:39:37.690Z,5.90
2022-07-29T11:42:28.472Z,3.55
2022-07-29T11:45:41.556Z,6.13
2022-07-29T11:47:56.073Z,6.90
2022-07-29T11:53:18.569Z,6.30
2022-07-29T11:55:51.885Z,13.77
2022-07-29T11:58:24.899Z,7.00
2022-07-29T12:00:52.754Z,4.55
2022-07-29T12:03:35.225Z,11.15
2022-07-29T12:06:13.247Z,8.63
2022-07-29T12:08:44.325Z,7.30
2022-07-29T12:11:22.711Z,6.90
2022-07-29T12:13:53.815Z,6.50
2022-07-29T12:16:25.798Z,6.30
2022-07-29T12:19:02.165Z,9.98
2022-07-29T12:21:31.045Z,5.85
2022-07-29T12:24:05.899Z,9.65
2022-07-29T12:26:36.328Z,5.77
2022-07-29T12:29:03.768Z,8.10
2022-07-29T12:31:43.589Z,4.85
2022-07-29T12:34:13.251Z,7.05
2022-07-29T12:36:41.365Z,7.80
2022-07-29T12:39:08.128Z,6.68
2022-07-29T12:41:38.175Z,10.35
2022-07-29T12:44:05.147Z,8.50
2022-07-29T12:46:32.359Z,8.95
2022-07-29T12:48:59.652Z,7.90
2022-07-29T12:51:40.444Z,8.57
2022-07-29T12:54:16.679Z,5.97
2022-07-29T12:56:45.260Z,8.80
2022-07-29T12:59:23.456Z,8.27
2022-07-29T13:01:52.793Z,10.93
2022-07-29T13:04:31.008Z,8.38
2022-07-29T13:07:04.505Z,5.05
2022-07-29T13:09:43.592Z,13.50
2022-07-29T13:12:12.751Z,6.05
2022-07-29T13:17:13.029Z,4.57
2022-07-29T13:19:42.669Z,4.85
2022-07-29T13:22:10.731Z,9.32
2022-07-29T13:24:55.081Z,4.45
2022-07-29T13:27:28.123Z,4.55
2022-07-29T13:30:00.455Z,6.43
2022-07-29T13:32:29.140Z,6.78
2022-07-29T13:35:01.113Z,8.02
2022-07-29T13:37:30.671Z,6.53
2022-07-29T13:39:58.356Z,8.05
2022-07-29T13:42:25.870Z,7.47
2022-07-29T13:44:52.755Z,4.32
2022-07-29T13:47:20.947Z,5.70
2022-07-29T13:49:47.566Z,6.05
2022-07-29T13:52:14.509Z,7.97
2022-07-29T13:54:42.593Z,6.18
2022-07-29T13:57:11.744Z,10.80
2022-07-29T13:59:38.931Z,11.38
2022-07-29T14:02:06.501Z,6.40
2022-07-29T14:04:34.379Z,7.70
2022-07-29T14:07:03.662Z,8.43
2022-07-29T14:09:30.863Z,6.15
2022-07-29T14:12:07.997Z,4.68
2022-07-29T14:14:36.505Z,3.17
2022-07-29T14:17:04.336Z,7.38
2022-07-29T14:19:32.866Z,5.65
2022-07-29T14:21:59.692Z,9.68
2022-07-29T14:24:26.453Z,12.27
2022-07-29T14:26:53.022Z,9.20
2022-07-29T14:29:19.873Z,5.32
2022-07-29T14:31:46.485Z,9.88
2022-07-29T14:34:13.138Z,6.32
2022-07-29T14:36:39.702Z,9.90
2022-07-29T14:39:06.162Z,9.93
2022-07-29T14:41:32.784Z,10.27
2022-07-29T14:44:01.561Z,9.98
2022-07-29T14:46:28.727Z,4.88
2022-07-29T14:48:55.653Z,11.88
2022-07-29T14:51:22.309Z,10.32
2022-07-29T14:53:48.853Z,7.55
2022-07-29T14:56:36.075Z,5.93
2022-07-29T14:59:01.839Z,7.70
2022-07-29T15:01:28.466Z,9.52
2022-07-29T15:03:59.548Z,7.35
2022-07-29T15:06:27.132Z,5.97
2022-07-29T15:08:53.616Z,7.20
2022-07-29T15:11:20.150Z,6.13
2022-07-29T15:13:46.628Z,10.27
2022-07-29T15:16:13.381Z,11.65
2022-07-29T15:18:40.164Z,13.13
2022-07-29T15:21:07.929Z,10.20
2022-07-29T15:23:38.507Z,6.75
2022-07-29T15:26:05.221Z,5.68
2022-07-29T15:28:31.752Z,9.10
2022-07-29T15:30:58.326Z,7.43
2022-07-29T15:33:24.947Z,7.90
2022-07-29T15:35:51.555Z,9.35
2022-07-29T15:38:18.505Z,5.88
2022-07-29T15:40:46.542Z,6.45
2022-07-29T15:43:13.159Z,6.50
2022-07-29T15:46:06.651Z,8.82
2022-07-29T15:48:33.460Z,7.07
2022-07-29T15:51:00.875Z,5.85
2022-07-29T15:53:27.361Z,7.53
2022-07-29T15:55:54.410Z,6.75
2022-07-29T15:58:21.086Z,10.90
2022-07-29T16:00:48.322Z,7.60
2022-07-29T16:03:14.892Z,5.78
2022-07-29T16:05:41.425Z,5.57
2022-07-29T16:08:08.020Z,10.48
2022-07-29T16:10:34.739Z,4.90
2022-07-29T16:13:01.684Z,6.82
2022-07-29T16:15:28.240Z,3.25
2022-07-29T16:17:54.899Z,6.30
2022-07-29T16:20:22.474Z,10.15
2022-07-29T16:22:49.559Z,3.58
2022-07-29T16:25:17.314Z,6.60
2022-07-29T16:27:43.850Z,6.10
2022-07-29T16:30:10.780Z,9.73
2022-07-29T16:32:38.954Z,8.10
2022-07-29T16:35:06.484Z,6.88
2022-07-29T16:37:37.159Z,7.90
2022-07-29T16:40:11.431Z,5.10
2022-07-29T16:42:47.243Z,5.85
2022-07-29T16:45:15.512Z,4.70
2022-07-29T16:47:42.200Z,4.18
2022-07-29T16:50:08.978Z,6.07
2022-07-29T16:52:35.980Z,11.75
2022-07-29T16:55:02.550Z,6.80
2022-07-29T16:57:29.163Z,7.70
2022-07-29T16:59:55.771Z,7.32
2022-07-29T17:02:22.365Z,6.95
2022-07-29T17:04:48.923Z,4.38
2022-07-29T17:07:16.031Z,5.28
2022-07-29T17:09:43.057Z,8.18
2022-07-29T17:12:09.731Z,5.40
2022-07-29T17:14:36.810Z,10.50
2022-07-29T17:17:04.374Z,9.35
2022-07-29T17:19:40.119Z,7.10
2022-07-29T17:22:14.330Z,10.77
2022-07-29T17:24:45.546Z,7.82
2022-07-29T17:27:12.337Z,5.13
2022-07-29T17:29:39.584Z,9.75
2022-07-29T17:32:07.737Z,9.57
2022-07-29T17:34:36.193Z,8.50
2022-07-29T17:37:04.145Z,8.98
2022-07-29T17:39:30.688Z,5.47
2022-07-29T17:41:57.395Z,6.78
2022-07-29T17:44:23.907Z,8.43
2022-07-29T17:46:50.517Z,7.65
2022-07-29T17:49:18.321Z,7.75
2022-07-29T17:51:44.895Z,14.60
2022-07-29T17:54:11.363Z,8.38
2022-07-29T17:56:37.914Z,9.60
2022-07-29T17:59:06.713Z,9.32
2022-07-29T18:01:33.895Z,6.75
2022-07-29T18:04:00.625Z,11.15
2022-07-29T18:06:27.165Z,9.90
2022-07-29T18:08:53.895Z,13.90
2022-07-29T18:11:20.396Z,7.43
2022-07-29T18:13:46.928Z,9.50
2022-07-29T18:16:13.965Z,8.95
2022-07-29T18:18:40.526Z,5.90
2022-07-29T18:21:07.651Z,7.40
2022-07-29T18:23:34.205Z,6.78
2022-07-29T18:26:00.737Z,9.68
2022-07-29T18:28:27.321Z,8.05
2022-07-29T18:30:53.961Z,11.65
2022-07-29T18:33:22.277Z,8.73
2022-07-29T18:35:51.287Z,7.18
2022-07-29T18:38:18.800Z,7.50
2022-07-29T18:40:46.221Z,9.15
2022-07-29T18:43:13.592Z,9.82
2022-07-29T18:45:40.328Z,9.07
2022-07-29T18:48:12.979Z,8.27
2022-07-29T18:50:40.430Z,6.88
2022-07-29T18:53:07.133Z,6.45
2022-07-29T18:55:33.782Z,10.35
2022-07-29T18:58:00.265Z,7.32
2022-07-29T19:00:27.388Z,6.05
2022-07-29T19:02:54.027Z,8.00
2022-07-29T19:05:21.585Z,7.72
2022-07-29T19:07:49.389Z,9.52
2022-07-29T19:10:15.994Z,9.10
2022-07-29T19:12:43.213Z,7.10
2022-07-29T19:15:10.650Z,7.30
2022-07-29T19:17:37.906Z,7.80
2022-07-29T19:20:05.230Z,6.22
2022-07-29T19:25:00.194Z,8.63
2022-07-29T19:27:26.848Z,9.75
2022-07-29T19:29:56.628Z,8.02
2022-07-29T19:32:26.388Z,7.88
2022-07-29T19:35:11.476Z,7.47
2022-07-29T19:37:38.133Z,8.98
2022-07-29T19:40:06.506Z,7.25
2022-07-29T19:42:33.533Z,12.98
2022-07-29T19:45:00.306Z,10.27
2022-07-29T19:47:26.919Z,8.90
2022-07-29T19:49:53.543Z,8.60
2022-07-29T19:52:20.050Z,8.23
2022-07-29T19:54:46.521Z,8.48
2022-07-29T19:57:13.115Z,6.07
2022-07-29T19:59:40.926Z,9.68
2022-07-29T20:02:10.726Z,7.07
2022-07-29T20:04:37.504Z,9.50
2022-07-29T20:07:04.514Z,8.07
2022-07-29T20:09:31.223Z,9.95
2022-07-29T20:11:57.873Z,9.93
2022-07-29T20:14:24.389Z,11.80
2022-07-29T20:16:53.573Z,9.73
2022-07-29T20:19:20.173Z,11.00
2022-07-29T20:21:46.614Z,9.15
2022-07-29T20:24:13.316Z,15.48
2022-07-29T20:26:42.463Z,11.68
2022-07-29T20:29:09.091Z,11.20
2022-07-29T20:31:36.056Z,10.32
2022-07-29T20:34:02.743Z,9.98
2022-07-29T20:36:29.453Z,9.02
2022-07-29T20:38:56.495Z,13.20
2022-07-29T20:41:23.399Z,12.23
2022-07-29T20:43:49.888Z,11.82
2022-07-29T20:46:17.984Z,15.50
2022-07-29T20:48:45.208Z,15.88
2022-07-29T20:51:11.769Z,12.70
2022-07-29T20:53:39.876Z,15.45
2022-07-29T20:56:07.827Z,16.42
2022-07-29T20:58:36.061Z,19.77
2022-07-29T21:01:03.669Z,18.60
2022-07-29T21:03:30.280Z,12.77
2022-07-29T21:05:56.997Z,12.82
2022-07-29T21:08:23.686Z,15.90
2022-07-29T21:10:50.326Z,11.55
2022-07-29T21:13:17.077Z,13.48
2022-07-29T21:15:46.276Z,16.27
2022-07-29T21:18:30.416Z,15.07
2022-07-29T21:21:02.821Z,13.57
2022-07-29T21:23:30.130Z,16.00
2022-07-29T21:25:57.482Z,13.07
2022-07-29T21:28:26.833Z,12.32
2022-07-29T21:30:57.810Z,16.83
2022-07-29T21:33:26.050Z,22.17
2022-07-29T21:36:15.366Z,22.65
2022-07-29T21:38:39.703Z,16.67
2022-07-29T21:41:06.734Z,23.13
2022-07-29T21:43:33.756Z,18.38
2022-07-29T21:46:01.006Z,21.40
2022-07-29T21:48:28.526Z,23.23
2022-07-29T21:50:57.066Z,17.70
2022-07-29T21:53:26.899Z,17.73
2022-07-29T21:55:56.813Z,17.02
2022-07-29T21:58:24.504Z,17.65
2022-07-29T22:00:51.119Z,26.27
2022-07-29T22:03:17.708Z,33.00
2022-07-29T22:05:44.639Z,28.05
2022-07-29T22:08:11.437Z,16.67
2022-07-29T22:10:38.011Z,14.07
2022-07-29T22:13:04.606Z,14.80
2022-07-29T22:15:31.268Z,13.88
2022-07-29T22:17:58.157Z,10.02
2022-07-29T22:20:24.881Z,12.52
2022-07-29T22:22:51.523Z,10.27
2022-07-29T22:25:18.205Z,19.63
2022-07-29T22:27:44.921Z,14.75
2022-07-29T22:30:12.112Z,12.05
2022-07-29T22:32:38.626Z,15.52
2022-07-29T22:35:05.571Z,14.98
2022-07-29T22:37:32.115Z,10.13
2022-07-29T22:39:58.759Z,10.48
2022-07-29T22:42:25.521Z,11.15
2022-07-29T22:44:52.142Z,12.93
2022-07-29T22:47:18.691Z,18.27
2022-07-29T22:50:06.722Z,13.75
2022-07-29T22:52:33.250Z,12.32
2022-07-29T22:54:59.754Z,11.38
2022-07-29T22:57:26.874Z,12.35
2022-07-29T22:59:53.495Z,9.50
2022-07-29T23:02:20.081Z,14.45
2022-07-29T23:04:46.707Z,13.45
2022-07-29T23:07:13.218Z,9.30
2022-07-29T23:09:39.854Z,14.60
2022-07-29T23:12:06.874Z,13.20
2022-07-29T23:14:33.379Z,11.57
2022-07-29T23:17:00.220Z,11.50
2022-07-29T23:19:27.365Z,10.40
2022-07-29T23:21:53.835Z,11.82
2022-07-29T23:24:20.321Z,12.02
2022-07-29T23:26:46.770Z,10.38
2022-07-29T23:29:13.593Z,12.90
2022-07-29T23:31:42.679Z,11.68
2022-07-29T23:34:14.850Z,13.60
2022-07-29T23:36:42.309Z,10.18
2022-07-29T23:39:11.268Z,18.55
2022-07-29T23:41:38.087Z,14.77
2022-07-29T23:44:05.073Z,14.07
2022-07-29T23:46:31.633Z,11.60
2022-07-29T23:48:58.285Z,10.82
2022-07-29T23:51:24.928Z,13.02
2022-07-29T23:53:53.871Z,13.15
2022-07-29T23:58:47.184Z,11.77
